sensor_id;sensor_type;location;lat;lon;timestamp;P1;durP1;ratioP1;P2;durP2;ratioP2
3549;SDS011;45572;48.804;8.330;2023-04-24T00:00:47;3.70;;;0.80;;
3549;SDS011;45572;48.804;8.330;2023-04-24T00:03:14;4.25;;;1.23;;
3549;SDS011;45572;48.804;8.330;2023-04-24T00:05:44;1.30;;;0.80;;
3549;SDS011;45572;48.804;8.330;2023-04-24T00:08:13;3.00;;;0.70;;
3549;SDS011;45572;48.804;8.330;2023-04-24T00:10:40;4.13;;;0.70;;
3549;SDS011;45572;48.804;8.330;2023-04-24T00:13:08;6.50;;;0.60;;
3549;SDS011;45572;48.804;8.330;2023-04-24T00:15:36;2.17;;;0.80;;
3549;SDS011;45572;48.804;8.330;2023-04-24T00:18:04;0.98;;;0.60;;
3549;SDS011;45572;48.804;8.330;2023-04-24T00:20:32;5.25;;;0.90;;
3549;SDS011;45572;48.804;8.330;2023-04-24T00:23:02;2.50;;;0.88;;
3549;SDS011;45572;48.804;8.330;2023-04-24T00:25:30;2.53;;;0.60;;
3549;SDS011;45572;48.804;8.330;2023-04-24T00:27:58;6.38;;;0.80;;
3549;SDS011;45572;48.804;8.330;2023-04-24T00:30:26;1.00;;;0.60;;
3549;SDS011;45572;48.804;8.330;2023-04-24T00:32:54;2.45;;;0.70;;
3549;SDS011;45572;48.804;8.330;2023-04-24T00:35:22;1.23;;;0.73;;
3549;SDS011;45572;48.804;8.330;2023-04-24T00:37:50;1.02;;;0.60;;
3549;SDS011;45572;48.804;8.330;2023-04-24T00:40:20;2.95;;;0.70;;
3549;SDS011;45572;48.804;8.330;2023-04-24T00:42:47;2.00;;;0.75;;
3549;SDS011;45572;48.804;8.330;2023-04-24T00:45:16;3.17;;;0.70;;
3549;SDS011;45572;48.804;8.330;2023-04-24T00:47:44;1.05;;;0.50;;
3549;SDS011;45572;48.804;8.330;2023-04-24T00:50:14;1.30;;;0.60;;
3549;SDS011;45572;48.804;8.330;2023-04-24T00:52:43;1.88;;;1.10;;
3549;SDS011;45572;48.804;8.330;2023-04-24T00:55:10;4.95;;;0.80;;
3549;SDS011;45572;48.804;8.330;2023-04-24T00:57:39;1.75;;;0.75;;
3549;SDS011;45572;48.804;8.330;2023-04-24T01:00:08;2.20;;;0.80;;
3549;SDS011;45572;48.804;8.330;2023-04-24T01:02:38;0.82;;;0.60;;
3549;SDS011;45572;48.804;8.330;2023-04-24T01:05:10;1.98;;;0.85;;
3549;SDS011;45572;48.804;8.330;2023-04-24T01:07:39;2.20;;;1.20;;
3549;SDS011;45572;48.804;8.330;2023-04-24T01:10:10;4.00;;;0.90;;
3549;SDS011;45572;48.804;8.330;2023-04-24T01:12:40;1.27;;;0.85;;
3549;SDS011;45572;48.804;8.330;2023-04-24T01:15:11;2.30;;;0.80;;
3549;SDS011;45572;48.804;8.330;2023-04-24T01:17:41;2.45;;;0.73;;
3549;SDS011;45572;48.804;8.330;2023-04-24T01:20:09;4.43;;;0.70;;
3549;SDS011;45572;48.804;8.330;2023-04-24T01:22:39;2.30;;;0.60;;
3549;SDS011;45572;48.804;8.330;2023-04-24T01:25:07;1.48;;;0.80;;
3549;SDS011;45572;48.804;8.330;2023-04-24T01:27:35;5.22;;;0.70;;
3549;SDS011;45572;48.804;8.330;2023-04-24T01:30:04;2.80;;;0.70;;
3549;SDS011;45572;48.804;8.330;2023-04-24T01:32:33;3.50;;;0.80;;
3549;SDS011;45572;48.804;8.330;2023-04-24T01:35:01;5.30;;;0.80;;
3549;SDS011;45572;48.804;8.330;2023-04-24T01:37:30;1.00;;;0.60;;
3549;SDS011;45572;48.804;8.330;2023-04-24T01:39:59;3.05;;;0.60;;
3549;SDS011;45572;48.804;8.330;2023-04-24T01:42:28;4.10;;;0.55;;
3549;SDS011;45572;48.804;8.330;2023-04-24T01:44:57;0.80;;;0.60;;
3549;SDS011;45572;48.804;8.330;2023-04-24T01:47:25;1.10;;;0.80;;
3549;SDS011;45572;48.804;8.330;2023-04-24T01:49:53;2.00;;;0.82;;
3549;SDS011;45572;48.804;8.330;2023-04-24T01:52:21;1.58;;;0.50;;
3549;SDS011;45572;48.804;8.330;2023-04-24T01:54:49;2.13;;;0.63;;
3549;SDS011;45572;48.804;8.330;2023-04-24T01:57:18;3.25;;;0.60;;
3549;SDS011;45572;48.804;8.330;2023-04-24T01:59:45;3.03;;;0.80;;
3549;SDS011;45572;48.804;8.330;2023-04-24T02:02:13;6.03;;;0.88;;
3549;SDS011;45572;48.804;8.330;2023-04-24T02:04:42;2.38;;;0.60;;
3549;SDS011;45572;48.804;8.330;2023-04-24T02:07:09;0.80;;;0.50;;
3549;SDS011;45572;48.804;8.330;2023-04-24T02:09:37;1.20;;;0.98;;
3549;SDS011;45572;48.804;8.330;2023-04-24T02:12:05;2.00;;;0.90;;
3549;SDS011;45572;48.804;8.330;2023-04-24T02:14:34;2.25;;;0.60;;
3549;SDS011;45572;48.804;8.330;2023-04-24T02:17:02;2.42;;;0.90;;
3549;SDS011;45572;48.804;8.330;2023-04-24T02:19:31;1.90;;;1.05;;
3549;SDS011;45572;48.804;8.330;2023-04-24T02:21:58;1.10;;;0.93;;
3549;SDS011;45572;48.804;8.330;2023-04-24T02:24:30;2.55;;;0.70;;
3549;SDS011;45572;48.804;8.330;2023-04-24T02:26:57;4.13;;;0.70;;
3549;SDS011;45572;48.804;8.330;2023-04-24T02:29:26;2.55;;;0.73;;
3549;SDS011;45572;48.804;8.330;2023-04-24T02:31:55;3.50;;;0.80;;
3549;SDS011;45572;48.804;8.330;2023-04-24T02:34:23;1.25;;;0.75;;
3549;SDS011;45572;48.804;8.330;2023-04-24T02:37:06;4.20;;;0.73;;
3549;SDS011;45572;48.804;8.330;2023-04-24T02:39:35;2.80;;;0.75;;
3549;SDS011;45572;48.804;8.330;2023-04-24T02:42:03;2.25;;;0.70;;
3549;SDS011;45572;48.804;8.330;2023-04-24T02:44:31;3.20;;;0.95;;
3549;SDS011;45572;48.804;8.330;2023-04-24T02:47:00;8.13;;;1.08;;
3549;SDS011;45572;48.804;8.330;2023-04-24T02:49:29;2.58;;;1.75;;
3549;SDS011;45572;48.804;8.330;2023-04-24T02:51:57;3.90;;;0.90;;
3549;SDS011;45572;48.804;8.330;2023-04-24T02:54:25;1.38;;;0.80;;
3549;SDS011;45572;48.804;8.330;2023-04-24T02:56:52;1.50;;;0.60;;
3549;SDS011;45572;48.804;8.330;2023-04-24T02:59:21;1.05;;;0.55;;
3549;SDS011;45572;48.804;8.330;2023-04-24T03:01:49;3.78;;;0.80;;
3549;SDS011;45572;48.804;8.330;2023-04-24T03:04:18;3.30;;;0.90;;
3549;SDS011;45572;48.804;8.330;2023-04-24T03:06:47;1.50;;;0.70;;
3549;SDS011;45572;48.804;8.330;2023-04-24T03:09:15;6.70;;;0.70;;
3549;SDS011;45572;48.804;8.330;2023-04-24T03:11:42;3.17;;;1.85;;
3549;SDS011;45572;48.804;8.330;2023-04-24T03:14:10;6.00;;;1.40;;
3549;SDS011;45572;48.804;8.330;2023-04-24T03:16:38;1.20;;;1.00;;
3549;SDS011;45572;48.804;8.330;2023-04-24T03:19:06;1.90;;;1.42;;
3549;SDS011;45572;48.804;8.330;2023-04-24T03:21:43;4.85;;;1.67;;
3549;SDS011;45572;48.804;8.330;2023-04-24T03:24:11;1.92;;;1.83;;
3549;SDS011;45572;48.804;8.330;2023-04-24T03:26:40;1.55;;;1.10;;
3549;SDS011;45572;48.804;8.330;2023-04-24T03:29:28;1.55;;;1.30;;
3549;SDS011;45572;48.804;8.330;2023-04-24T03:31:57;1.70;;;1.52;;
3549;SDS011;45572;48.804;8.330;2023-04-24T03:34:25;1.75;;;1.60;;
3549;SDS011;45572;48.804;8.330;2023-04-24T03:36:54;4.55;;;1.83;;
3549;SDS011;45572;48.804;8.330;2023-04-24T03:39:23;2.13;;;1.55;;
3549;SDS011;45572;48.804;8.330;2023-04-24T03:41:54;4.00;;;1.58;;
3549;SDS011;45572;48.804;8.330;2023-04-24T03:44:29;1.60;;;1.27;;
3549;SDS011;45572;48.804;8.330;2023-04-24T03:46:57;1.38;;;1.27;;
3549;SDS011;45572;48.804;8.330;2023-04-24T03:49:28;2.20;;;1.30;;
3549;SDS011;45572;48.804;8.330;2023-04-24T03:51:57;3.88;;;1.20;;
3549;SDS011;45572;48.804;8.330;2023-04-24T03:54:26;1.75;;;1.42;;
3549;SDS011;45572;48.804;8.330;2023-04-24T03:56:54;1.88;;;1.10;;
3549;SDS011;45572;48.804;8.330;2023-04-24T03:59:25;4.80;;;1.30;;
3549;SDS011;45572;48.804;8.330;2023-04-24T04:02:07;2.00;;;1.23;;
3549;SDS011;45572;48.804;8.330;2023-04-24T04:04:36;1.73;;;1.38;;
3549;SDS011;45572;48.804;8.330;2023-04-24T04:07:05;2.00;;;1.70;;
3549;SDS011;45572;48.804;8.330;2023-04-24T04:09:34;2.30;;;1.70;;
3549;SDS011;45572;48.804;8.330;2023-04-24T04:12:02;2.63;;;1.80;;
3549;SDS011;45572;48.804;8.330;2023-04-24T04:14:31;2.05;;;1.40;;
3549;SDS011;45572;48.804;8.330;2023-04-24T04:16:59;3.15;;;1.52;;
3549;SDS011;45572;48.804;8.330;2023-04-24T04:19:27;3.42;;;1.15;;
3549;SDS011;45572;48.804;8.330;2023-04-24T04:21:55;1.38;;;1.02;;
3549;SDS011;45572;48.804;8.330;2023-04-24T04:24:34;5.68;;;1.52;;
3549;SDS011;45572;48.804;8.330;2023-04-24T04:27:04;3.60;;;1.90;;
3549;SDS011;45572;48.804;8.330;2023-04-24T04:29:40;2.78;;;1.20;;
3549;SDS011;45572;48.804;8.330;2023-04-24T04:32:11;1.90;;;1.65;;
3549;SDS011;45572;48.804;8.330;2023-04-24T04:34:39;5.47;;;2.90;;
3549;SDS011;45572;48.804;8.330;2023-04-24T04:37:10;4.05;;;1.60;;
3549;SDS011;45572;48.804;8.330;2023-04-24T04:39:54;2.80;;;1.90;;
3549;SDS011;45572;48.804;8.330;2023-04-24T04:42:24;3.80;;;2.28;;
3549;SDS011;45572;48.804;8.330;2023-04-24T04:44:53;3.05;;;2.10;;
3549;SDS011;45572;48.804;8.330;2023-04-24T04:47:28;2.58;;;1.90;;
3549;SDS011;45572;48.804;8.330;2023-04-24T04:49:58;3.05;;;2.00;;
3549;SDS011;45572;48.804;8.330;2023-04-24T04:52:27;4.32;;;2.10;;
3549;SDS011;45572;48.804;8.330;2023-04-24T04:55:09;2.17;;;1.98;;
3549;SDS011;45572;48.804;8.330;2023-04-24T04:57:57;2.45;;;1.80;;
3549;SDS011;45572;48.804;8.330;2023-04-24T05:00:26;3.80;;;2.13;;
3549;SDS011;45572;48.804;8.330;2023-04-24T05:02:55;4.22;;;2.00;;
3549;SDS011;45572;48.804;8.330;2023-04-24T05:05:43;3.13;;;1.98;;
3549;SDS011;45572;48.804;8.330;2023-04-24T05:08:13;2.15;;;1.95;;
3549;SDS011;45572;48.804;8.330;2023-04-24T05:10:54;2.88;;;2.10;;
3549;SDS011;45572;48.804;8.330;2023-04-24T05:13:23;3.00;;;2.00;;
3549;SDS011;45572;48.804;8.330;2023-04-24T05:16:10;2.95;;;2.10;;
3549;SDS011;45572;48.804;8.330;2023-04-24T05:18:38;4.60;;;2.35;;
3549;SDS011;45572;48.804;8.330;2023-04-24T05:21:09;3.10;;;2.20;;
3549;SDS011;45572;48.804;8.330;2023-04-24T05:23:39;4.30;;;2.33;;
3549;SDS011;45572;48.804;8.330;2023-04-24T05:26:11;3.33;;;2.33;;
3549;SDS011;45572;48.804;8.330;2023-04-24T05:28:42;3.45;;;1.88;;
3549;SDS011;45572;48.804;8.330;2023-04-24T05:31:13;3.15;;;1.80;;
3549;SDS011;45572;48.804;8.330;2023-04-24T05:33:44;2.88;;;2.10;;
3549;SDS011;45572;48.804;8.330;2023-04-24T05:36:12;3.85;;;2.25;;
3549;SDS011;45572;48.804;8.330;2023-04-24T05:38:42;3.80;;;2.25;;
3549;SDS011;45572;48.804;8.330;2023-04-24T05:41:12;3.67;;;1.90;;
3549;SDS011;45572;48.804;8.330;2023-04-24T05:43:40;2.08;;;1.70;;
3549;SDS011;45572;48.804;8.330;2023-04-24T05:46:09;3.10;;;1.85;;
3549;SDS011;45572;48.804;8.330;2023-04-24T05:48:38;3.75;;;2.05;;
3549;SDS011;45572;48.804;8.330;2023-04-24T05:51:08;1.58;;;1.35;;
3549;SDS011;45572;48.804;8.330;2023-04-24T05:53:38;3.38;;;2.10;;
3549;SDS011;45572;48.804;8.330;2023-04-24T05:56:09;7.68;;;1.77;;
3549;SDS011;45572;48.804;8.330;2023-04-24T05:58:41;3.30;;;1.73;;
3549;SDS011;45572;48.804;8.330;2023-04-24T06:01:13;4.30;;;1.80;;
3549;SDS011;45572;48.804;8.330;2023-04-24T06:03:44;4.20;;;2.10;;
3549;SDS011;45572;48.804;8.330;2023-04-24T06:06:12;2.53;;;1.88;;
3549;SDS011;45572;48.804;8.330;2023-04-24T06:08:40;1.83;;;1.33;;
3549;SDS011;45572;48.804;8.330;2023-04-24T06:11:09;4.85;;;1.65;;
3549;SDS011;45572;48.804;8.330;2023-04-24T06:13:37;2.75;;;1.75;;
3549;SDS011;45572;48.804;8.330;2023-04-24T06:16:26;3.55;;;2.10;;
3549;SDS011;45572;48.804;8.330;2023-04-24T06:19:01;9.02;;;2.35;;
3549;SDS011;45572;48.804;8.330;2023-04-24T06:21:29;3.67;;;2.03;;
3549;SDS011;45572;48.804;8.330;2023-04-24T06:23:57;2.47;;;2.10;;
3549;SDS011;45572;48.804;8.330;2023-04-24T06:26:25;2.38;;;1.70;;
3549;SDS011;45572;48.804;8.330;2023-04-24T06:28:56;2.83;;;1.58;;
3549;SDS011;45572;48.804;8.330;2023-04-24T06:31:26;3.92;;;1.90;;
3549;SDS011;45572;48.804;8.330;2023-04-24T06:33:58;3.10;;;1.75;;
3549;SDS011;45572;48.804;8.330;2023-04-24T06:36:29;4.25;;;1.75;;
3549;SDS011;45572;48.804;8.330;2023-04-24T06:39:01;2.53;;;1.90;;
3549;SDS011;45572;48.804;8.330;2023-04-24T06:41:28;2.92;;;1.63;;
3549;SDS011;45572;48.804;8.330;2023-04-24T06:43:59;3.00;;;2.03;;
3549;SDS011;45572;48.804;8.330;2023-04-24T06:46:29;3.13;;;2.28;;
3549;SDS011;45572;48.804;8.330;2023-04-24T06:48:57;3.78;;;1.73;;
3549;SDS011;45572;48.804;8.330;2023-04-24T06:51:25;8.10;;;2.00;;
3549;SDS011;45572;48.804;8.330;2023-04-24T06:53:53;2.60;;;1.48;;
3549;SDS011;45572;48.804;8.330;2023-04-24T06:56:22;2.85;;;1.98;;
3549;SDS011;45572;48.804;8.330;2023-04-24T06:58:50;2.83;;;2.00;;
3549;SDS011;45572;48.804;8.330;2023-04-24T07:01:18;3.75;;;2.20;;
3549;SDS011;45572;48.804;8.330;2023-04-24T07:03:49;1.70;;;1.42;;
3549;SDS011;45572;48.804;8.330;2023-04-24T07:06:17;2.70;;;1.65;;
3549;SDS011;45572;48.804;8.330;2023-04-24T07:08:48;5.47;;;2.33;;
3549;SDS011;45572;48.804;8.330;2023-04-24T07:11:16;3.47;;;2.10;;
3549;SDS011;45572;48.804;8.330;2023-04-24T07:13:44;2.70;;;1.40;;
3549;SDS011;45572;48.804;8.330;2023-04-24T07:16:12;1.80;;;1.70;;
3549;SDS011;45572;48.804;8.330;2023-04-24T07:18:41;6.63;;;1.80;;
3549;SDS011;45572;48.804;8.330;2023-04-24T07:21:10;1.80;;;1.63;;
3549;SDS011;45572;48.804;8.330;2023-04-24T07:23:39;4.57;;;2.00;;
3549;SDS011;45572;48.804;8.330;2023-04-24T07:26:11;3.60;;;2.13;;
3549;SDS011;45572;48.804;8.330;2023-04-24T07:28:44;4.78;;;2.00;;
3549;SDS011;45572;48.804;8.330;2023-04-24T07:31:12;5.10;;;2.30;;
3549;SDS011;45572;48.804;8.330;2023-04-24T07:33:40;1.92;;;1.45;;
3549;SDS011;45572;48.804;8.330;2023-04-24T07:36:07;1.90;;;1.65;;
3549;SDS011;45572;48.804;8.330;2023-04-24T07:38:42;2.50;;;1.90;;
3549;SDS011;45572;48.804;8.330;2023-04-24T07:41:10;2.40;;;1.55;;
3549;SDS011;45572;48.804;8.330;2023-04-24T07:43:39;4.65;;;1.77;;
3549;SDS011;45572;48.804;8.330;2023-04-24T07:46:14;1.85;;;1.33;;
3549;SDS011;45572;48.804;8.330;2023-04-24T07:48:42;3.67;;;1.55;;
3549;SDS011;45572;48.804;8.330;2023-04-24T07:51:11;5.53;;;1.05;;
3549;SDS011;45572;48.804;8.330;2023-04-24T07:53:39;1.95;;;1.20;;
3549;SDS011;45572;48.804;8.330;2023-04-24T07:56:10;2.53;;;1.40;;
3549;SDS011;45572;48.804;8.330;2023-04-24T07:58:41;1.73;;;1.07;;
3549;SDS011;45572;48.804;8.330;2023-04-24T08:01:09;5.63;;;1.40;;
3549;SDS011;45572;48.804;8.330;2023-04-24T08:03:40;1.80;;;1.58;;
3549;SDS011;45572;48.804;8.330;2023-04-24T08:06:08;1.70;;;0.88;;
3549;SDS011;45572;48.804;8.330;2023-04-24T08:08:37;2.85;;;1.50;;
3549;SDS011;45572;48.804;8.330;2023-04-24T08:11:05;1.50;;;0.80;;
3549;SDS011;45572;48.804;8.330;2023-04-24T08:13:39;1.38;;;0.95;;
3549;SDS011;45572;48.804;8.330;2023-04-24T08:16:10;6.05;;;1.98;;
3549;SDS011;45572;48.804;8.330;2023-04-24T08:18:38;2.42;;;0.90;;
3549;SDS011;45572;48.804;8.330;2023-04-24T08:21:07;1.30;;;0.90;;
3549;SDS011;45572;48.804;8.330;2023-04-24T08:23:36;1.30;;;1.10;;
3549;SDS011;45572;48.804;8.330;2023-04-24T08:26:04;3.28;;;1.08;;
3549;SDS011;45572;48.804;8.330;2023-04-24T08:28:35;1.52;;;1.10;;
3549;SDS011;45572;48.804;8.330;2023-04-24T08:31:04;9.60;;;2.03;;
3549;SDS011;45572;48.804;8.330;2023-04-24T08:33:35;2.58;;;1.15;;
3549;SDS011;45572;48.804;8.330;2023-04-24T08:36:05;5.70;;;1.13;;
3549;SDS011;45572;48.804;8.330;2023-04-24T08:38:33;2.13;;;1.02;;
3549;SDS011;45572;48.804;8.330;2023-04-24T08:41:02;4.05;;;1.15;;
3549;SDS011;45572;48.804;8.330;2023-04-24T08:43:33;1.52;;;0.90;;
3549;SDS011;45572;48.804;8.330;2023-04-24T08:46:06;1.23;;;0.70;;
3549;SDS011;45572;48.804;8.330;2023-04-24T08:48:37;3.90;;;1.27;;
3549;SDS011;45572;48.804;8.330;2023-04-24T08:51:08;1.20;;;0.90;;
3549;SDS011;45572;48.804;8.330;2023-04-24T08:53:37;3.10;;;1.35;;
3549;SDS011;45572;48.804;8.330;2023-04-24T08:56:04;1.88;;;1.10;;
3549;SDS011;45572;48.804;8.330;2023-04-24T08:58:33;3.83;;;1.60;;
3549;SDS011;45572;48.804;8.330;2023-04-24T09:01:02;2.20;;;1.15;;
3549;SDS011;45572;48.804;8.330;2023-04-24T09:03:31;4.00;;;1.40;;
3549;SDS011;45572;48.804;8.330;2023-04-24T09:06:01;3.35;;;1.33;;
3549;SDS011;45572;48.804;8.330;2023-04-24T09:08:30;1.10;;;0.95;;
3549;SDS011;45572;48.804;8.330;2023-04-24T09:10:59;3.67;;;1.30;;
3549;SDS011;45572;48.804;8.330;2023-04-24T09:13:29;1.95;;;1.23;;
3549;SDS011;45572;48.804;8.330;2023-04-24T09:15:57;1.50;;;1.10;;
3549;SDS011;45572;48.804;8.330;2023-04-24T09:18:27;4.63;;;1.15;;
3549;SDS011;45572;48.804;8.330;2023-04-24T09:20:58;1.98;;;1.20;;
3549;SDS011;45572;48.804;8.330;2023-04-24T09:23:28;1.85;;;1.10;;
3549;SDS011;45572;48.804;8.330;2023-04-24T09:25:58;4.28;;;2.00;;
3549;SDS011;45572;48.804;8.330;2023-04-24T09:28:31;3.28;;;1.52;;
3549;SDS011;45572;48.804;8.330;2023-04-24T09:31:02;5.10;;;2.80;;
3549;SDS011;45572;48.804;8.330;2023-04-24T09:33:34;8.65;;;1.92;;
3549;SDS011;45572;48.804;8.330;2023-04-24T09:36:03;2.33;;;1.00;;
3549;SDS011;45572;48.804;8.330;2023-04-24T09:38:33;1.90;;;1.13;;
3549;SDS011;45572;48.804;8.330;2023-04-24T09:41:04;3.15;;;1.60;;
3549;SDS011;45572;48.804;8.330;2023-04-24T09:43:34;1.63;;;1.20;;
3549;SDS011;45572;48.804;8.330;2023-04-24T09:46:05;2.17;;;1.55;;
3549;SDS011;45572;48.804;8.330;2023-04-24T09:48:35;3.60;;;1.70;;
3549;SDS011;45572;48.804;8.330;2023-04-24T09:51:08;1.55;;;1.20;;
3549;SDS011;45572;48.804;8.330;2023-04-24T09:53:39;1.80;;;0.93;;
3549;SDS011;45572;48.804;8.330;2023-04-24T09:56:11;2.63;;;1.35;;
3549;SDS011;45572;48.804;8.330;2023-04-24T09:58:39;5.35;;;1.60;;
3549;SDS011;45572;48.804;8.330;2023-04-24T10:01:07;3.60;;;0.85;;
3549;SDS011;45572;48.804;8.330;2023-04-24T10:03:35;5.03;;;1.05;;
3549;SDS011;45572;48.804;8.330;2023-04-24T10:06:03;1.65;;;1.33;;
3549;SDS011;45572;48.804;8.330;2023-04-24T10:08:36;1.73;;;1.15;;
3549;SDS011;45572;48.804;8.330;2023-04-24T10:11:04;1.80;;;1.02;;
3549;SDS011;45572;48.804;8.330;2023-04-24T10:13:33;3.53;;;2.13;;
3549;SDS011;45572;48.804;8.330;2023-04-24T10:16:04;1.98;;;1.13;;
3549;SDS011;45572;48.804;8.330;2023-04-24T10:18:35;2.60;;;1.20;;
3549;SDS011;45572;48.804;8.330;2023-04-24T10:21:04;1.50;;;0.90;;
3549;SDS011;45572;48.804;8.330;2023-04-24T10:23:33;2.97;;;1.52;;
3549;SDS011;45572;48.804;8.330;2023-04-24T10:26:03;2.28;;;1.00;;
3549;SDS011;45572;48.804;8.330;2023-04-24T10:28:31;1.77;;;1.20;;
3549;SDS011;45572;48.804;8.330;2023-04-24T10:31:04;1.65;;;1.13;;
3549;SDS011;45572;48.804;8.330;2023-04-24T10:33:33;2.13;;;1.23;;
3549;SDS011;45572;48.804;8.330;2023-04-24T10:36:02;2.88;;;2.00;;
3549;SDS011;45572;48.804;8.330;2023-04-24T10:38:30;2.55;;;1.60;;
3549;SDS011;45572;48.804;8.330;2023-04-24T10:41:08;3.83;;;1.58;;
3549;SDS011;45572;48.804;8.330;2023-04-24T10:43:41;2.83;;;1.60;;
3549;SDS011;45572;48.804;8.330;2023-04-24T10:46:10;1.98;;;1.75;;
3549;SDS011;45572;48.804;8.330;2023-04-24T10:48:42;4.13;;;1.77;;
3549;SDS011;45572;48.804;8.330;2023-04-24T10:51:11;3.05;;;1.60;;
3549;SDS011;45572;48.804;8.330;2023-04-24T10:53:40;4.10;;;2.35;;
3549;SDS011;45572;48.804;8.330;2023-04-24T10:56:10;3.20;;;1.50;;
3549;SDS011;45572;48.804;8.330;2023-04-24T10:58:39;2.53;;;1.73;;
3549;SDS011;45572;48.804;8.330;2023-04-24T11:01:23;2.33;;;1.70;;
3549;SDS011;45572;48.804;8.330;2023-04-24T11:03:54;5.20;;;1.70;;
3549;SDS011;45572;48.804;8.330;2023-04-24T11:06:30;2.47;;;1.90;;
3549;SDS011;45572;48.804;8.330;2023-04-24T11:09:02;3.65;;;1.70;;
3549;SDS011;45572;48.804;8.330;2023-04-24T11:11:34;2.53;;;1.50;;
3549;SDS011;45572;48.804;8.330;2023-04-24T11:14:04;1.65;;;1.42;;
3549;SDS011;45572;48.804;8.330;2023-04-24T11:16:37;1.73;;;1.30;;
3549;SDS011;45572;48.804;8.330;2023-04-24T11:19:21;2.45;;;1.13;;
3549;SDS011;45572;48.804;8.330;2023-04-24T11:21:57;2.58;;;1.35;;
3549;SDS011;45572;48.804;8.330;2023-04-24T11:24:30;2.13;;;1.30;;
3549;SDS011;45572;48.804;8.330;2023-04-24T11:27:06;2.67;;;1.52;;
3549;SDS011;45572;48.804;8.330;2023-04-24T11:29:43;2.53;;;1.83;;
3549;SDS011;45572;48.804;8.330;2023-04-24T11:32:15;2.58;;;1.55;;
3549;SDS011;45572;48.804;8.330;2023-04-24T11:34:47;2.30;;;1.50;;
3549;SDS011;45572;48.804;8.330;2023-04-24T11:37:17;2.03;;;1.40;;
3549;SDS011;45572;48.804;8.330;2023-04-24T11:39:45;5.35;;;2.50;;
3549;SDS011;45572;48.804;8.330;2023-04-24T11:42:17;3.00;;;1.60;;
3549;SDS011;45572;48.804;8.330;2023-04-24T11:44:48;3.28;;;1.55;;
3549;SDS011;45572;48.804;8.330;2023-04-24T11:47:17;3.05;;;1.52;;
3549;SDS011;45572;48.804;8.330;2023-04-24T11:49:50;2.40;;;2.00;;
3549;SDS011;45572;48.804;8.330;2023-04-24T11:52:20;2.35;;;1.75;;
3549;SDS011;45572;48.804;8.330;2023-04-24T11:54:48;3.33;;;2.38;;
3549;SDS011;45572;48.804;8.330;2023-04-24T11:57:20;4.38;;;1.70;;
3549;SDS011;45572;48.804;8.330;2023-04-24T11:59:48;5.63;;;2.00;;
3549;SDS011;45572;48.804;8.330;2023-04-24T12:02:20;3.42;;;2.45;;
3549;SDS011;45572;48.804;8.330;2023-04-24T12:04:49;6.65;;;3.00;;
3549;SDS011;45572;48.804;8.330;2023-04-24T12:07:20;2.72;;;1.70;;
3549;SDS011;45572;48.804;8.330;2023-04-24T12:09:55;2.40;;;1.85;;
3549;SDS011;45572;48.804;8.330;2023-04-24T12:12:28;3.53;;;1.80;;
3549;SDS011;45572;48.804;8.330;2023-04-24T12:14:57;3.90;;;2.35;;
3549;SDS011;45572;48.804;8.330;2023-04-24T12:17:29;5.28;;;2.40;;
3549;SDS011;45572;48.804;8.330;2023-04-24T12:19:59;3.25;;;2.42;;
3549;SDS011;45572;48.804;8.330;2023-04-24T12:25:18;3.05;;;2.08;;
3549;SDS011;45572;48.804;8.330;2023-04-24T12:27:54;4.63;;;2.10;;
3549;SDS011;45572;48.804;8.330;2023-04-24T12:30:27;4.90;;;2.70;;
3549;SDS011;45572;48.804;8.330;2023-04-24T12:32:58;4.60;;;2.72;;
3549;SDS011;45572;48.804;8.330;2023-04-24T12:35:27;2.80;;;1.90;;
3549;SDS011;45572;48.804;8.330;2023-04-24T12:38:05;1.67;;;1.35;;
3549;SDS011;45572;48.804;8.330;2023-04-24T12:40:35;3.00;;;1.90;;
3549;SDS011;45572;48.804;8.330;2023-04-24T12:43:14;3.28;;;2.05;;
3549;SDS011;45572;48.804;8.330;2023-04-24T12:45:44;4.10;;;2.03;;
3549;SDS011;45572;48.804;8.330;2023-04-24T12:48:15;3.05;;;1.92;;
3549;SDS011;45572;48.804;8.330;2023-04-24T12:50:43;2.30;;;1.80;;
3549;SDS011;45572;48.804;8.330;2023-04-24T12:53:13;2.95;;;2.40;;
3549;SDS011;45572;48.804;8.330;2023-04-24T12:55:41;4.05;;;2.10;;
3549;SDS011;45572;48.804;8.330;2023-04-24T12:58:14;4.43;;;1.80;;
3549;SDS011;45572;48.804;8.330;2023-04-24T13:00:44;4.53;;;1.83;;
3549;SDS011;45572;48.804;8.330;2023-04-24T13:03:12;4.15;;;2.42;;
3549;SDS011;45572;48.804;8.330;2023-04-24T13:05:41;2.63;;;2.42;;
3549;SDS011;45572;48.804;8.330;2023-04-24T13:08:09;2.47;;;1.98;;
3549;SDS011;45572;48.804;8.330;2023-04-24T13:10:42;2.47;;;2.10;;
3549;SDS011;45572;48.804;8.330;2023-04-24T13:13:10;2.55;;;2.20;;
3549;SDS011;45572;48.804;8.330;2023-04-24T13:15:39;4.15;;;2.03;;
3549;SDS011;45572;48.804;8.330;2023-04-24T13:18:09;4.22;;;1.48;;
3549;SDS011;45572;48.804;8.330;2023-04-24T13:20:38;3.03;;;1.85;;
3549;SDS011;45572;48.804;8.330;2023-04-24T13:23:08;2.67;;;1.75;;
3549;SDS011;45572;48.804;8.330;2023-04-24T13:25:36;7.13;;;2.40;;
3549;SDS011;45572;48.804;8.330;2023-04-24T13:28:05;2.67;;;2.05;;
3549;SDS011;45572;48.804;8.330;2023-04-24T13:30:32;3.90;;;2.13;;
3549;SDS011;45572;48.804;8.330;2023-04-24T13:33:02;2.80;;;2.13;;
3549;SDS011;45572;48.804;8.330;2023-04-24T13:35:30;2.60;;;2.10;;
3549;SDS011;45572;48.804;8.330;2023-04-24T13:37:58;3.90;;;2.58;;
3549;SDS011;45572;48.804;8.330;2023-04-24T13:40:27;3.63;;;3.05;;
3549;SDS011;45572;48.804;8.330;2023-04-24T13:42:55;4.50;;;3.08;;
3549;SDS011;45572;48.804;8.330;2023-04-24T13:45:24;5.50;;;3.20;;
3549;SDS011;45572;48.804;8.330;2023-04-24T13:47:55;7.25;;;2.40;;
3549;SDS011;45572;48.804;8.330;2023-04-24T13:50:25;5.40;;;2.97;;
3549;SDS011;45572;48.804;8.330;2023-04-24T13:52:54;6.90;;;2.47;;
3549;SDS011;45572;48.804;8.330;2023-04-24T13:55:22;5.47;;;2.10;;
3549;SDS011;45572;48.804;8.330;2023-04-24T13:57:52;5.72;;;2.90;;
3549;SDS011;45572;48.804;8.330;2023-04-24T14:00:21;8.30;;;3.20;;
3549;SDS011;45572;48.804;8.330;2023-04-24T14:02:51;4.82;;;3.30;;
3549;SDS011;45572;48.804;8.330;2023-04-24T14:05:19;7.38;;;2.92;;
3549;SDS011;45572;48.804;8.330;2023-04-24T14:07:50;4.65;;;3.05;;
3549;SDS011;45572;48.804;8.330;2023-04-24T14:10:17;3.40;;;2.65;;
3549;SDS011;45572;48.804;8.330;2023-04-24T14:12:45;9.15;;;3.95;;
3549;SDS011;45572;48.804;8.330;2023-04-24T14:15:13;4.95;;;3.70;;
3549;SDS011;45572;48.804;8.330;2023-04-24T14:17:41;7.70;;;4.10;;
3549;SDS011;45572;48.804;8.330;2023-04-24T14:20:09;4.85;;;3.67;;
3549;SDS011;45572;48.804;8.330;2023-04-24T14:22:37;4.75;;;3.38;;
3549;SDS011;45572;48.804;8.330;2023-04-24T14:25:07;4.78;;;2.90;;
3549;SDS011;45572;48.804;8.330;2023-04-24T14:27:37;5.85;;;3.55;;
3549;SDS011;45572;48.804;8.330;2023-04-24T14:30:07;6.10;;;3.63;;
3549;SDS011;45572;48.804;8.330;2023-04-24T14:32:35;5.70;;;3.38;;
3549;SDS011;45572;48.804;8.330;2023-04-24T14:35:06;7.78;;;3.80;;
3549;SDS011;45572;48.804;8.330;2023-04-24T14:37:37;7.97;;;3.35;;
3549;SDS011;45572;48.804;8.330;2023-04-24T14:40:12;5.38;;;3.53;;
3549;SDS011;45572;48.804;8.330;2023-04-24T14:43:01;3.65;;;2.50;;
3549;SDS011;45572;48.804;8.330;2023-04-24T14:45:29;3.53;;;2.53;;
3549;SDS011;45572;48.804;8.330;2023-04-24T14:47:57;7.88;;;2.83;;
3549;SDS011;45572;48.804;8.330;2023-04-24T14:50:25;4.70;;;2.80;;
3549;SDS011;45572;48.804;8.330;2023-04-24T14:52:54;4.90;;;3.65;;
3549;SDS011;45572;48.804;8.330;2023-04-24T14:55:24;5.32;;;3.83;;
3549;SDS011;45572;48.804;8.330;2023-04-24T14:57:53;5.20;;;3.55;;
3549;SDS011;45572;48.804;8.330;2023-04-24T15:00:21;4.05;;;3.30;;
3549;SDS011;45572;48.804;8.330;2023-04-24T15:02:50;6.05;;;2.75;;
3549;SDS011;45572;48.804;8.330;2023-04-24T15:05:18;4.57;;;2.95;;
3549;SDS011;45572;48.804;8.330;2023-04-24T15:07:47;4.38;;;3.30;;
3549;SDS011;45572;48.804;8.330;2023-04-24T15:10:15;6.57;;;3.20;;
3549;SDS011;45572;48.804;8.330;2023-04-24T15:12:45;7.05;;;3.35;;
3549;SDS011;45572;48.804;8.330;2023-04-24T15:15:12;3.80;;;2.97;;
3549;SDS011;45572;48.804;8.330;2023-04-24T15:17:40;4.28;;;3.38;;
3549;SDS011;45572;48.804;8.330;2023-04-24T15:20:08;6.57;;;3.28;;